sensor_id;sensor_type;location;lat;lon;timestamp;P1;durP1;ratioP1;P2;durP2;ratioP2
48627;SDS011;34424;52.234;6.500;2022-11-20T00:04:29;51.78;;;25.63;;
48627;SDS011;34424;52.234;6.500;2022-11-20T00:09:33;54.42;;;25.52;;
48627;SDS011;34424;52.234;6.500;2022-11-20T00:14:35;48.35;;;23.00;;
48627;SDS011;34424;52.234;6.500;2022-11-20T00:19:38;51.78;;;25.08;;
48627;SDS011;34424;52.234;6.500;2022-11-20T00:24:41;45.75;;;21.27;;
48627;SDS011;34424;52.234;6.500;2022-11-20T00:29:44;36.33;;;20.17;;
48627;SDS011;34424;52.234;6.500;2022-11-20T00:34:46;32.10;;;17.95;;
48627;SDS011;34424;52.234;6.500;2022-11-20T00:39:50;36.42;;;18.80;;
48627;SDS011;34424;52.234;6.500;2022-11-20T00:44:52;30.55;;;16.55;;
48627;SDS011;34424;52.234;6.500;2022-11-20T00:49:55;40.47;;;18.20;;
48627;SDS011;34424;52.234;6.500;2022-11-20T00:54:59;32.30;;;16.50;;
48627;SDS011;34424;52.234;6.500;2022-11-20T01:00:01;34.85;;;16.45;;
48627;SDS011;34424;52.234;6.500;2022-11-20T01:05:04;36.17;;;19.10;;
48627;SDS011;34424;52.234;6.500;2022-11-20T01:10:08;29.27;;;18.20;;
48627;SDS011;34424;52.234;6.500;2022-11-20T01:15:10;31.70;;;18.10;;
48627;SDS011;34424;52.234;6.500;2022-11-20T01:20:13;32.83;;;15.73;;
48627;SDS011;34424;52.234;6.500;2022-11-20T01:25:17;34.22;;;17.85;;
48627;SDS011;34424;52.234;6.500;2022-11-20T01:30:19;35.70;;;17.02;;
48627;SDS011;34424;52.234;6.500;2022-11-20T01:35:22;37.00;;;18.37;;
48627;SDS011;34424;52.234;6.500;2022-11-20T01:40:25;34.60;;;16.30;;
48627;SDS011;34424;52.234;6.500;2022-11-20T01:51:00;28.50;;;17.05;;
48627;SDS011;34424;52.234;6.500;2022-11-20T01:56:07;34.80;;;18.45;;
48627;SDS011;34424;52.234;6.500;2022-11-20T02:01:11;29.30;;;17.00;;
48627;SDS011;34424;52.234;6.500;2022-11-20T02:11:18;31.55;;;17.33;;
48627;SDS011;34424;52.234;6.500;2022-11-20T02:16:22;30.15;;;15.52;;
48627;SDS011;34424;52.234;6.500;2022-11-20T02:21:28;27.70;;;14.82;;
48627;SDS011;34424;52.234;6.500;2022-11-20T02:26:34;25.17;;;13.15;;
48627;SDS011;34424;52.234;6.500;2022-11-20T02:31:46;31.63;;;15.25;;
48627;SDS011;34424;52.234;6.500;2022-11-20T02:36:49;27.33;;;15.10;;
48627;SDS011;34424;52.234;6.500;2022-11-20T02:41:54;27.13;;;14.32;;
48627;SDS011;34424;52.234;6.500;2022-11-20T02:46:57;26.58;;;14.85;;
48627;SDS011;34424;52.234;6.500;2022-11-20T02:52:00;27.93;;;14.33;;
48627;SDS011;34424;52.234;6.500;2022-11-20T02:57:04;23.25;;;14.07;;
48627;SDS011;34424;52.234;6.500;2022-11-20T03:02:06;29.75;;;15.20;;
48627;SDS011;34424;52.234;6.500;2022-11-20T03:07:09;26.83;;;15.37;;
48627;SDS011;34424;52.234;6.500;2022-11-20T03:12:13;25.73;;;14.57;;
48627;SDS011;34424;52.234;6.500;2022-11-20T03:17:15;28.02;;;15.90;;
48627;SDS011;34424;52.234;6.500;2022-11-20T03:22:18;25.90;;;12.43;;
48627;SDS011;34424;52.234;6.500;2022-11-20T03:27:22;29.63;;;14.23;;
48627;SDS011;34424;52.234;6.500;2022-11-20T03:32:24;28.67;;;13.80;;
48627;SDS011;34424;52.234;6.500;2022-11-20T03:37:27;27.48;;;14.35;;
48627;SDS011;34424;52.234;6.500;2022-11-20T03:42:31;31.10;;;15.70;;
48627;SDS011;34424;52.234;6.500;2022-11-20T03:47:48;24.65;;;13.77;;
48627;SDS011;34424;52.234;6.500;2022-11-20T03:52:51;26.63;;;13.73;;
48627;SDS011;34424;52.234;6.500;2022-11-20T03:57:54;31.90;;;15.83;;
48627;SDS011;34424;52.234;6.500;2022-11-20T04:02:57;29.08;;;13.60;;
48627;SDS011;34424;52.234;6.500;2022-11-20T04:08:00;22.30;;;12.45;;
48627;SDS011;34424;52.234;6.500;2022-11-20T04:13:04;29.30;;;13.97;;
48627;SDS011;34424;52.234;6.500;2022-11-20T04:18:06;28.42;;;14.57;;
48627;SDS011;34424;52.234;6.500;2022-11-20T04:23:09;23.60;;;12.20;;
48627;SDS011;34424;52.234;6.500;2022-11-20T04:28:13;21.30;;;12.88;;
48627;SDS011;34424;52.234;6.500;2022-11-20T04:33:15;23.85;;;13.07;;
48627;SDS011;34424;52.234;6.500;2022-11-20T04:38:17;22.57;;;12.97;;
48627;SDS011;34424;52.234;6.500;2022-11-20T04:43:21;23.25;;;13.55;;
48627;SDS011;34424;52.234;6.500;2022-11-20T04:48:24;25.30;;;12.57;;
48627;SDS011;34424;52.234;6.500;2022-11-20T04:53:27;24.33;;;13.10;;
48627;SDS011;34424;52.234;6.500;2022-11-20T04:58:31;21.30;;;13.70;;
48627;SDS011;34424;52.234;6.500;2022-11-20T05:03:33;23.80;;;13.10;;
48627;SDS011;34424;52.234;6.500;2022-11-20T05:08:42;27.48;;;13.00;;
48627;SDS011;34424;52.234;6.500;2022-11-20T05:13:46;21.95;;;12.57;;
48627;SDS011;34424;52.234;6.500;2022-11-20T05:18:49;21.38;;;11.77;;
48627;SDS011;34424;52.234;6.500;2022-11-20T05:23:51;23.48;;;12.10;;
48627;SDS011;34424;52.234;6.500;2022-11-20T05:28:55;28.80;;;13.27;;
48627;SDS011;34424;52.234;6.500;2022-11-20T05:33:58;21.40;;;12.43;;
48627;SDS011;34424;52.234;6.500;2022-11-20T05:39:00;26.57;;;13.93;;
48627;SDS011;34424;52.234;6.500;2022-11-20T05:44:04;23.70;;;12.23;;
48627;SDS011;34424;52.234;6.500;2022-11-20T05:49:07;25.55;;;13.48;;
48627;SDS011;34424;52.234;6.500;2022-11-20T05:54:09;22.75;;;12.57;;
48627;SDS011;34424;52.234;6.500;2022-11-20T05:59:13;23.67;;;12.50;;
48627;SDS011;34424;52.234;6.500;2022-11-20T06:04:15;26.00;;;13.70;;
48627;SDS011;34424;52.234;6.500;2022-11-20T06:09:17;28.25;;;12.95;;
48627;SDS011;34424;52.234;6.500;2022-11-20T06:14:22;23.85;;;13.93;;
48627;SDS011;34424;52.234;6.500;2022-11-20T06:19:24;21.75;;;12.85;;
48627;SDS011;34424;52.234;6.500;2022-11-20T06:24:27;27.90;;;14.13;;
48627;SDS011;34424;52.234;6.500;2022-11-20T06:29:31;35.60;;;15.90;;
48627;SDS011;34424;52.234;6.500;2022-11-20T06:34:34;29.13;;;14.80;;
48627;SDS011;34424;52.234;6.500;2022-11-20T06:39:36;26.52;;;14.90;;
48627;SDS011;34424;52.234;6.500;2022-11-20T06:44:40;28.95;;;15.57;;
48627;SDS011;34424;52.234;6.500;2022-11-20T06:49:43;27.42;;;15.60;;
48627;SDS011;34424;52.234;6.500;2022-11-20T06:54:45;27.42;;;15.75;;
48627;SDS011;34424;52.234;6.500;2022-11-20T06:59:49;30.05;;;15.48;;
48627;SDS011;34424;52.234;6.500;2022-11-20T07:04:51;30.10;;;16.58;;
48627;SDS011;34424;52.234;6.500;2022-11-20T07:09:54;29.60;;;14.93;;
48627;SDS011;34424;52.234;6.500;2022-11-20T07:14:57;31.50;;;16.30;;
48627;SDS011;34424;52.234;6.500;2022-11-20T07:20:00;34.85;;;16.15;;
48627;SDS011;34424;52.234;6.500;2022-11-20T07:25:02;32.63;;;16.67;;
48627;SDS011;34424;52.234;6.500;2022-11-20T07:30:07;30.63;;;17.50;;
48627;SDS011;34424;52.234;6.500;2022-11-20T07:35:10;29.63;;;16.63;;
48627;SDS011;34424;52.234;6.500;2022-11-20T07:40:12;33.17;;;20.17;;
48627;SDS011;34424;52.234;6.500;2022-11-20T07:45:16;31.23;;;16.38;;
48627;SDS011;34424;52.234;6.500;2022-11-20T07:50:19;35.83;;;17.90;;
48627;SDS011;34424;52.234;6.500;2022-11-20T07:55:22;34.47;;;17.03;;
48627;SDS011;34424;52.234;6.500;2022-11-20T08:00:26;33.33;;;18.80;;
48627;SDS011;34424;52.234;6.500;2022-11-20T08:05:29;37.92;;;21.00;;
48627;SDS011;34424;52.234;6.500;2022-11-20T08:10:31;23.25;;;15.75;;
48627;SDS011;34424;52.234;6.500;2022-11-20T08:15:35;22.73;;;14.32;;
48627;SDS011;34424;52.234;6.500;2022-11-20T08:20:38;21.15;;;15.10;;
48627;SDS011;34424;52.234;6.500;2022-11-20T08:25:40;26.05;;;19.30;;
48627;SDS011;34424;52.234;6.500;2022-11-20T08:30:44;22.90;;;18.35;;
48627;SDS011;34424;52.234;6.500;2022-11-20T08:35:47;21.60;;;15.63;;
48627;SDS011;34424;52.234;6.500;2022-11-20T08:40:49;18.70;;;14.98;;
48627;SDS011;34424;52.234;6.500;2022-11-20T08:46:07;18.05;;;14.80;;
48627;SDS011;34424;52.234;6.500;2022-11-20T08:51:10;21.20;;;17.65;;
48627;SDS011;34424;52.234;6.500;2022-11-20T08:56:12;23.33;;;17.83;;
48627;SDS011;34424;52.234;6.500;2022-11-20T09:01:16;20.52;;;17.33;;
48627;SDS011;34424;52.234;6.500;2022-11-20T09:06:18;20.77;;;17.88;;
48627;SDS011;34424;52.234;6.500;2022-11-20T09:11:21;19.88;;;14.15;;
48627;SDS011;34424;52.234;6.500;2022-11-20T09:16:25;23.02;;;17.95;;
48627;SDS011;34424;52.234;6.500;2022-11-20T09:21:27;21.25;;;18.80;;
48627;SDS011;34424;52.234;6.500;2022-11-20T09:26:30;21.13;;;17.63;;
48627;SDS011;34424;52.234;6.500;2022-11-20T09:31:34;22.63;;;18.00;;
48627;SDS011;34424;52.234;6.500;2022-11-20T09:36:36;19.15;;;17.13;;
48627;SDS011;34424;52.234;6.500;2022-11-20T09:41:52;21.85;;;17.08;;
48627;SDS011;34424;52.234;6.500;2022-11-20T09:47:01;20.33;;;17.27;;
48627;SDS011;34424;52.234;6.500;2022-11-20T09:52:07;19.48;;;16.73;;
48627;SDS011;34424;52.234;6.500;2022-11-20T09:57:14;18.15;;;15.63;;
48627;SDS011;34424;52.234;6.500;2022-11-20T10:02:21;21.23;;;16.73;;
48627;SDS011;34424;52.234;6.500;2022-11-20T10:07:27;18.67;;;16.13;;
48627;SDS011;34424;52.234;6.500;2022-11-20T10:12:35;19.20;;;16.45;;
48627;SDS011;34424;52.234;6.500;2022-11-20T10:17:58;18.92;;;14.65;;
48627;SDS011;34424;52.234;6.500;2022-11-20T10:23:09;18.17;;;14.25;;
48627;SDS011;34424;52.234;6.500;2022-11-20T10:28:28;20.42;;;15.73;;
48627;SDS011;34424;52.234;6.500;2022-11-20T10:33:36;24.95;;;18.50;;
48627;SDS011;34424;52.234;6.500;2022-11-20T10:39:03;19.02;;;16.85;;
48627;SDS011;34424;52.234;6.500;2022-11-20T10:44:10;20.55;;;16.08;;
48627;SDS011;34424;52.234;6.500;2022-11-20T10:49:15;21.45;;;16.95;;
48627;SDS011;34424;52.234;6.500;2022-11-20T10:54:19;20.40;;;16.40;;
48627;SDS011;34424;52.234;6.500;2022-11-20T10:59:27;20.05;;;15.88;;
48627;SDS011;34424;52.234;6.500;2022-11-20T11:04:36;18.08;;;14.27;;
48627;SDS011;34424;52.234;6.500;2022-11-20T11:09:41;20.60;;;16.80;;
48627;SDS011;34424;52.234;6.500;2022-11-20T11:14:46;26.98;;;21.20;;
48627;SDS011;34424;52.234;6.500;2022-11-20T11:20:01;22.92;;;16.65;;
48627;SDS011;34424;52.234;6.500;2022-11-20T11:25:03;21.08;;;17.48;;
48627;SDS011;34424;52.234;6.500;2022-11-20T11:30:13;23.80;;;17.83;;
48627;SDS011;34424;52.234;6.500;2022-11-20T11:35:24;18.70;;;16.13;;
48627;SDS011;34424;52.234;6.500;2022-11-20T11:40:27;21.73;;;16.42;;
48627;SDS011;34424;52.234;6.500;2022-11-20T11:45:32;19.27;;;15.45;;
48627;SDS011;34424;52.234;6.500;2022-11-20T11:50:35;18.48;;;15.32;;
48627;SDS011;34424;52.234;6.500;2022-11-20T11:55:40;16.00;;;12.13;;
48627;SDS011;34424;52.234;6.500;2022-11-20T12:00:47;17.33;;;15.32;;
48627;SDS011;34424;52.234;6.500;2022-11-20T12:05:53;17.67;;;14.70;;
48627;SDS011;34424;52.234;6.500;2022-11-20T12:11:00;15.88;;;12.85;;
48627;SDS011;34424;52.234;6.500;2022-11-20T12:16:07;16.75;;;14.32;;
48627;SDS011;34424;52.234;6.500;2022-11-20T12:21:20;16.75;;;14.05;;
48627;SDS011;34424;52.234;6.500;2022-11-20T12:26:28;16.57;;;14.80;;
48627;SDS011;34424;52.234;6.500;2022-11-20T12:31:37;18.02;;;15.05;;
48627;SDS011;34424;52.234;6.500;2022-11-20T12:36:44;17.00;;;13.70;;
48627;SDS011;34424;52.234;6.500;2022-11-20T12:41:55;20.10;;;15.40;;
48627;SDS011;34424;52.234;6.500;2022-11-20T12:47:23;17.23;;;15.10;;
48627;SDS011;34424;52.234;6.500;2022-11-20T12:52:37;17.15;;;13.05;;
48627;SDS011;34424;52.234;6.500;2022-11-20T12:57:43;17.70;;;13.85;;
48627;SDS011;34424;52.234;6.500;2022-11-20T13:08:18;15.80;;;13.27;;
48627;SDS011;34424;52.234;6.500;2022-11-20T13:13:23;15.60;;;13.55;;
48627;SDS011;34424;52.234;6.500;2022-11-20T13:18:26;18.58;;;13.00;;
48627;SDS011;34424;52.234;6.500;2022-11-20T13:23:29;18.15;;;13.15;;
48627;SDS011;34424;52.234;6.500;2022-11-20T13:28:32;17.92;;;13.57;;
48627;SDS011;34424;52.234;6.500;2022-11-20T13:33:35;16.75;;;13.27;;
48627;SDS011;34424;52.234;6.500;2022-11-20T13:38:44;14.32;;;12.45;;
48627;SDS011;34424;52.234;6.500;2022-11-20T13:43:48;18.30;;;14.00;;
48627;SDS011;34424;52.234;6.500;2022-11-20T13:48:51;17.60;;;14.15;;
48627;SDS011;34424;52.234;6.500;2022-11-20T13:54:04;17.20;;;13.95;;
48627;SDS011;34424;52.234;6.500;2022-11-20T13:59:10;21.15;;;15.18;;
48627;SDS011;34424;52.234;6.500;2022-11-20T14:04:17;19.85;;;15.00;;
48627;SDS011;34424;52.234;6.500;2022-11-20T14:09:28;21.33;;;16.13;;
48627;SDS011;34424;52.234;6.500;2022-11-20T14:14:32;22.95;;;17.35;;
48627;SDS011;34424;52.234;6.500;2022-11-20T14:19:37;22.70;;;16.30;;
48627;SDS011;34424;52.234;6.500;2022-11-20T14:24:42;23.42;;;16.02;;
48627;SDS011;34424;52.234;6.500;2022-11-20T14:29:45;24.45;;;18.73;;
48627;SDS011;34424;52.234;6.500;2022-11-20T14:34:49;25.25;;;18.08;;
48627;SDS011;34424;52.234;6.500;2022-11-20T14:39:53;26.75;;;19.17;;
48627;SDS011;34424;52.234;6.500;2022-11-20T14:44:57;32.28;;;20.50;;
48627;SDS011;34424;52.234;6.500;2022-11-20T14:49:59;27.55;;;18.13;;
48627;SDS011;34424;52.234;6.500;2022-11-20T14:55:14;31.35;;;19.85;;
48627;SDS011;34424;52.234;6.500;2022-11-20T15:00:27;28.75;;;19.15;;
48627;SDS011;34424;52.234;6.500;2022-11-20T15:05:43;27.27;;;19.85;;
48627;SDS011;34424;52.234;6.500;2022-11-20T15:10:48;28.70;;;20.08;;
48627;SDS011;34424;52.234;6.500;2022-11-20T15:15:52;32.47;;;19.52;;
48627;SDS011;34424;52.234;6.500;2022-11-20T15:20:56;35.88;;;21.77;;
48627;SDS011;34424;52.234;6.500;2022-11-20T15:31:03;34.45;;;23.25;;
48627;SDS011;34424;52.234;6.500;2022-11-20T15:36:06;31.90;;;22.75;;
48627;SDS011;34424;52.234;6.500;2022-11-20T15:41:08;47.67;;;30.08;;
48627;SDS011;34424;52.234;6.500;2022-11-20T15:46:13;38.15;;;25.23;;
48627;SDS011;34424;52.234;6.500;2022-11-20T15:51:19;39.47;;;25.80;;
48627;SDS011;34424;52.234;6.500;2022-11-20T15:56:23;42.72;;;28.10;;
48627;SDS011;34424;52.234;6.500;2022-11-20T16:01:27;41.17;;;27.23;;
48627;SDS011;34424;52.234;6.500;2022-11-20T16:06:30;47.97;;;34.08;;
48627;SDS011;34424;52.234;6.500;2022-11-20T16:11:34;41.63;;;26.63;;
48627;SDS011;34424;52.234;6.500;2022-11-20T16:16:38;43.60;;;28.85;;
48627;SDS011;34424;52.234;6.500;2022-11-20T16:21:42;49.40;;;28.92;;
48627;SDS011;34424;52.234;6.500;2022-11-20T16:26:45;46.97;;;29.05;;
48627;SDS011;34424;52.234;6.500;2022-11-20T16:31:48;48.38;;;29.52;;
48627;SDS011;34424;52.234;6.500;2022-11-20T16:36:51;53.03;;;32.97;;
48627;SDS011;34424;52.234;6.500;2022-11-20T16:41:53;50.78;;;31.73;;
48627;SDS011;34424;52.234;6.500;2022-11-20T16:46:57;54.50;;;33.88;;
48627;SDS011;34424;52.234;6.500;2022-11-20T16:51:59;63.80;;;33.88;;
48627;SDS011;34424;52.234;6.500;2022-11-20T16:57:02;63.42;;;35.28;;
48627;SDS011;34424;52.234;6.500;2022-11-20T17:02:06;56.50;;;33.95;;
48627;SDS011;34424;52.234;6.500;2022-11-20T17:07:08;59.42;;;37.63;;
48627;SDS011;34424;52.234;6.500;2022-11-20T17:12:11;55.53;;;35.80;;
48627;SDS011;34424;52.234;6.500;2022-11-20T17:17:14;59.50;;;37.13;;
48627;SDS011;34424;52.234;6.500;2022-11-20T17:22:17;63.05;;;36.85;;
48627;SDS011;34424;52.234;6.500;2022-11-20T17:27:19;58.92;;;35.25;;
48627;SDS011;34424;52.234;6.500;2022-11-20T17:32:24;60.28;;;37.28;;
48627;SDS011;34424;52.234;6.500;2022-11-20T17:37:26;61.72;;;38.25;;
48627;SDS011;34424;52.234;6.500;2022-11-20T17:42:29;62.20;;;40.35;;
48627;SDS011;34424;52.234;6.500;2022-11-20T17:47:38;61.13;;;38.67;;
48627;SDS011;34424;52.234;6.500;2022-11-20T17:52:40;65.10;;;38.72;;
48627;SDS011;34424;52.234;6.500;2022-11-20T17:57:43;60.95;;;36.63;;
48627;SDS011;34424;52.234;6.500;2022-11-20T18:02:58;70.85;;;39.97;;
48627;SDS011;34424;52.234;6.500;2022-11-20T18:08:00;72.78;;;41.78;;
48627;SDS011;34424;52.234;6.500;2022-11-20T18:13:03;74.55;;;41.72;;
48627;SDS011;34424;52.234;6.500;2022-11-20T18:18:07;76.78;;;45.10;;
48627;SDS011;34424;52.234;6.500;2022-11-20T18:23:09;70.60;;;40.97;;
48627;SDS011;34424;52.234;6.500;2022-11-20T18:28:11;75.20;;;43.03;;
48627;SDS011;34424;52.234;6.500;2022-11-20T18:33:15;73.35;;;44.05;;
48627;SDS011;34424;52.234;6.500;2022-11-20T18:38:18;82.15;;;48.42;;
48627;SDS011;34424;52.234;6.500;2022-11-20T18:43:21;80.13;;;46.57;;
48627;SDS011;34424;52.234;6.500;2022-11-20T18:48:43;83.35;;;46.10;;
48627;SDS011;34424;52.234;6.500;2022-11-20T18:53:45;83.85;;;49.85;;
48627;SDS011;34424;52.234;6.500;2022-11-20T18:58:48;90.22;;;51.15;;
48627;SDS011;34424;52.234;6.500;2022-11-20T19:03:51;89.82;;;48.10;;
48627;SDS011;34424;52.234;6.500;2022-11-20T19:08:54;90.28;;;50.83;;
48627;SDS011;34424;52.234;6.500;2022-11-20T19:13:56;87.18;;;48.72;;
48627;SDS011;34424;52.234;6.500;2022-11-20T19:19:00;78.65;;;45.08;;
48627;SDS011;34424;52.234;6.500;2022-11-20T19:24:04;83.88;;;44.28;;
48627;SDS011;34424;52.234;6.500;2022-11-20T19:29:06;79.00;;;43.30;;
48627;SDS011;34424;52.234;6.500;2022-11-20T19:34:10;82.68;;;42.97;;
48627;SDS011;34424;52.234;6.500;2022-11-20T19:39:13;73.97;;;40.20;;
48627;SDS011;34424;52.234;6.500;2022-11-20T19:44:16;77.18;;;39.47;;
48627;SDS011;34424;52.234;6.500;2022-11-20T19:49:20;66.60;;;35.65;;
48627;SDS011;34424;52.234;6.500;2022-11-20T19:54:23;55.30;;;33.65;;
48627;SDS011;34424;52.234;6.500;2022-11-20T19:59:26;61.15;;;35.17;;
48627;SDS011;34424;52.234;6.500;2022-11-20T20:04:30;48.05;;;30.42;;
48627;SDS011;34424;52.234;6.500;2022-11-20T20:09:32;56.30;;;30.48;;
48627;SDS011;34424;52.234;6.500;2022-11-20T20:14:35;58.07;;;29.83;;
48627;SDS011;34424;52.234;6.500;2022-11-20T20:19:39;67.63;;;37.30;;
48627;SDS011;34424;52.234;6.500;2022-11-20T20:29:43;55.40;;;30.23;;
48627;SDS011;34424;52.234;6.500;2022-11-20T20:34:47;70.95;;;39.30;;
48627;SDS011;34424;52.234;6.500;2022-11-20T20:39:50;59.47;;;34.38;;
48627;SDS011;34424;52.234;6.500;2022-11-20T20:44:52;63.97;;;32.57;;
48627;SDS011;34424;52.234;6.500;2022-11-20T20:50:12;60.40;;;33.78;;
48627;SDS011;34424;52.234;6.500;2022-11-20T20:55:15;61.20;;;32.80;;
48627;SDS011;34424;52.234;6.500;2022-11-20T21:00:17;61.25;;;32.45;;
48627;SDS011;34424;52.234;6.500;2022-11-20T21:05:21;60.80;;;34.15;;
48627;SDS011;34424;52.234;6.500;2022-11-20T21:10:23;62.92;;;35.58;;
48627;SDS011;34424;52.234;6.500;2022-11-20T21:15:26;58.85;;;32.92;;
48627;SDS011;34424;52.234;6.500;2022-11-20T21:20:30;65.10;;;37.00;;
48627;SDS011;34424;52.234;6.500;2022-11-20T21:25:49;62.67;;;35.35;;
48627;SDS011;34424;52.234;6.500;2022-11-20T21:30:52;56.67;;;34.33;;
48627;SDS011;34424;52.234;6.500;2022-11-20T21:35:58;68.25;;;36.35;;
48627;SDS011;34424;52.234;6.500;2022-11-20T21:41:01;66.25;;;35.55;;
48627;SDS011;34424;52.234;6.500;2022-11-20T21:46:04;72.33;;;39.47;;
48627;SDS011;34424;52.234;6.500;2022-11-20T21:56:11;69.43;;;37.78;;
48627;SDS011;34424;52.234;6.500;2022-11-20T22:01:20;74.60;;;39.25;;
48627;SDS011;34424;52.234;6.500;2022-11-20T22:06:24;75.90;;;37.47;;
48627;SDS011;34424;52.234;6.500;2022-11-20T22:11:28;79.65;;;40.42;;
48627;SDS011;34424;52.234;6.500;2022-11-20T22:16:31;65.57;;;36.42;;
48627;SDS011;34424;52.234;6.500;2022-11-20T22:21:34;77.83;;;38.07;;
48627;SDS011;34424;52.234;6.500;2022-11-20T22:26:38;73.40;;;37.47;;
48627;SDS011;34424;52.234;6.500;2022-11-20T22:31:41;71.88;;;38.55;;
48627;SDS011;34424;52.234;6.500;2022-11-20T22:36:43;83.15;;;40.95;;
48627;SDS011;34424;52.234;6.500;2022-11-20T22:41:47;78.43;;;41.58;;
48627;SDS011;34424;52.234;6.500;2022-11-20T22:51:52;88.72;;;40.47;;
48627;SDS011;34424;52.234;6.500;2022-11-20T22:56:55;79.45;;;39.08;;
48627;SDS011;34424;52.234;6.500;2022-11-20T23:01:58;79.40;;;41.08;;
48627;SDS011;34424;52.234;6.500;2022-11-20T23:07:00;83.75;;;43.72;;
48627;SDS011;34424;52.234;6.500;2022-11-20T23:12:04;91.00;;;44.03;;
48627;SDS011;34424;52.234;6.500;2022-11-20T23:17:07;86.95;;;43.80;;
48627;SDS011;34424;52.234;6.500;2022-11-20T23:22:09;90.18;;;45.28;;
48627;SDS011;34424;52.234;6.500;2022-11-20T23:27:13;88.57;;;46.50;;
48627;SDS011;34424;52.234;6.500;2022-11-20T23:32:19;91.50;;;46.30;;
48627;SDS011;34424;52.234;6.500;2022-11-20T23:37:22;104.50;;;49.92;;
48627;SDS011;34424;52.234;6.500;2022-11-20T23:42:26;98.40;;;45.50;;
48627;SDS011;34424;52.234;6.500;2022-11-20T23:47:28;99.95;;;49.75;;
48627;SDS011;34424;52.234;6.500;2022-11-20T23:52:30;98.40;;;47.22;;
48627;SDS011;34424;52.234;6.500;2022-11-20T23:57:34;86.60;;;44.20;;
